createdAt,value
2022-09-06T00:00:26.560Z,15.67
2022-09-06T00:04:28.029Z,15.72
2022-09-06T00:08:29.513Z,15.76
2022-09-06T00:12:31.411Z,15.80
2022-09-06T00:16:32.868Z,15.53
2022-09-06T00:20:35.036Z,15.67
2022-09-06T00:24:37.239Z,15.53
2022-09-06T00:28:39.528Z,15.50
2022-09-06T00:32:41.240Z,15.47
2022-09-06T00:36:42.671Z,15.61
2022-09-06T00:40:44.193Z,15.44
2022-09-06T00:44:45.824Z,15.46
2022-09-06T00:48:50.158Z,15.47
2022-09-06T00:52:52.653Z,15.35
2022-09-06T00:56:55.230Z,15.34
2022-09-06T01:00:56.953Z,15.31
2022-09-06T01:04:58.694Z,15.27
2022-09-06T01:09:12.527Z,15.40
2022-09-06T01:13:38.585Z,15.29
2022-09-06T01:18:03.000Z,15.21
2022-09-06T01:22:48.516Z,15.28
2022-09-06T01:27:08.195Z,15.25
2022-09-06T01:31:35.551Z,15.13
2022-09-06T01:35:48.103Z,15.07
2022-09-06T01:39:49.594Z,14.83
2022-09-06T01:43:53.355Z,14.63
2022-09-06T01:48:17.001Z,14.56
2022-09-06T01:52:23.265Z,14.55
2022-09-06T01:56:47.695Z,14.64
2022-09-06T02:01:06.143Z,14.52
2022-09-06T02:05:27.554Z,14.55
2022-09-06T02:09:36.128Z,14.57
2022-09-06T02:13:51.238Z,14.47
2022-09-06T02:18:16.720Z,14.33
2022-09-06T02:22:22.833Z,14.30
2022-09-06T02:26:27.553Z,14.23
2022-09-06T02:30:29.107Z,14.40
2022-09-06T02:34:30.788Z,14.32
2022-09-06T02:38:36.980Z,14.23
2022-09-06T02:42:42.051Z,14.35
2022-09-06T02:46:43.446Z,14.37
2022-09-06T02:50:44.864Z,14.38
2022-09-06T02:54:46.350Z,14.36
2022-09-06T02:58:47.739Z,14.46
2022-09-06T03:02:49.207Z,14.20
2022-09-06T03:06:50.652Z,14.28
2022-09-06T03:10:56.130Z,14.35
2022-09-06T03:14:57.828Z,14.29
2022-09-06T03:18:59.236Z,14.33
2022-09-06T03:23:00.667Z,14.24
2022-09-06T03:27:02.084Z,14.20
2022-09-06T03:31:04.104Z,14.30
2022-09-06T03:35:05.937Z,14.35
2022-09-06T03:39:07.403Z,14.42
2022-09-06T03:43:08.796Z,14.32
2022-09-06T03:47:10.317Z,14.15
2022-09-06T03:51:11.764Z,14.30
2022-09-06T03:55:13.167Z,14.06
2022-09-06T03:59:14.638Z,14.00
2022-09-06T04:03:16.202Z,13.89
2022-09-06T04:07:17.608Z,13.91
2022-09-06T04:11:19.068Z,13.80
2022-09-06T04:15:20.526Z,13.62
2022-09-06T04:19:22.098Z,13.74
2022-09-06T04:23:25.053Z,13.65
2022-09-06T04:27:26.449Z,13.56
2022-09-06T04:31:27.951Z,13.58
2022-09-06T04:35:29.448Z,13.70
2022-09-06T04:39:30.923Z,13.58
2022-09-06T04:43:32.961Z,13.50
2022-09-06T04:47:34.456Z,13.60
2022-09-06T04:51:37.290Z,13.65
2022-09-06T04:55:39.018Z,13.63
2022-09-06T04:59:40.431Z,13.63
2022-09-06T05:03:42.423Z,13.65
2022-09-06T05:07:43.888Z,13.89
2022-09-06T05:11:46.231Z,13.73
2022-09-06T05:15:47.683Z,13.82
2022-09-06T05:19:49.159Z,13.78
2022-09-06T05:23:51.936Z,13.81
2022-09-06T05:27:55.802Z,13.80
2022-09-06T05:31:57.525Z,13.85
2022-09-06T05:35:59.082Z,13.97
2022-09-06T05:40:01.770Z,13.95
2022-09-06T05:44:03.761Z,13.96
2022-09-06T05:48:05.240Z,14.11
2022-09-06T05:52:06.665Z,14.17
2022-09-06T05:56:08.896Z,14.09
2022-09-06T06:00:12.228Z,14.18
2022-09-06T06:04:13.700Z,14.22
2022-09-06T06:08:15.119Z,14.31
2022-09-06T06:12:16.554Z,14.42
2022-09-06T06:16:20.379Z,14.46
2022-09-06T06:20:21.830Z,14.46
2022-09-06T06:24:23.343Z,14.25
2022-09-06T06:28:24.810Z,14.66
2022-09-06T06:32:26.432Z,14.59
2022-09-06T06:36:30.688Z,14.63
2022-09-06T06:40:32.127Z,14.76
2022-09-06T06:44:33.566Z,14.99
2022-09-06T06:48:36.395Z,15.17
2022-09-06T06:52:37.781Z,15.17
2022-09-06T06:56:44.772Z,15.36
2022-09-06T07:00:46.443Z,15.33
2022-09-06T07:04:47.917Z,15.46
2022-09-06T07:08:49.832Z,15.53
2022-09-06T07:12:51.820Z,15.67
2022-09-06T07:16:58.178Z,15.76
2022-09-06T07:25:21.626Z,15.98
2022-09-06T07:29:23.200Z,16.12
2022-09-06T07:33:24.941Z,16.34
2022-09-06T07:37:26.328Z,16.27
2022-09-06T07:41:27.775Z,16.30
2022-09-06T07:45:29.189Z,16.73
2022-09-06T07:49:34.700Z,16.95
2022-09-06T07:53:37.950Z,17.17
2022-09-06T07:57:39.629Z,17.25
2022-09-06T08:01:41.494Z,17.28
2022-09-06T08:10:04.712Z,17.43
2022-09-06T08:14:08.089Z,17.55
2022-09-06T08:18:09.513Z,17.60
2022-09-06T08:22:10.926Z,17.56
2022-09-06T08:26:12.821Z,17.42
2022-09-06T08:30:14.344Z,17.47
2022-09-06T08:34:16.012Z,17.71
2022-09-06T08:38:17.434Z,17.87
2022-09-06T08:42:18.940Z,18.06
2022-09-06T08:46:23.627Z,18.04
2022-09-06T08:50:28.729Z,18.23
2022-09-06T08:54:52.018Z,18.58
2022-09-06T08:59:06.478Z,18.89
2022-09-06T09:03:17.006Z,19.12
2022-09-06T09:07:21.312Z,18.36
2022-09-06T09:11:25.515Z,18.31
2022-09-06T09:15:28.775Z,18.49
2022-09-06T09:19:33.453Z,18.63
2022-09-06T09:23:35.480Z,18.83
2022-09-06T09:27:37.444Z,19.35
2022-09-06T09:31:49.797Z,19.66
2022-09-06T09:35:53.354Z,19.71
2022-09-06T09:39:57.859Z,19.51
2022-09-06T09:44:04.843Z,19.44
2022-09-06T09:48:20.527Z,19.52
2022-09-06T09:52:25.027Z,19.25
2022-09-06T09:56:32.714Z,19.33
2022-09-06T10:00:34.090Z,19.41
2022-09-06T10:04:44.568Z,19.43
2022-09-06T10:08:46.735Z,19.53
2022-09-06T10:12:48.337Z,19.51
2022-09-06T10:16:51.657Z,19.40
2022-09-06T10:21:00.795Z,19.28
2022-09-06T10:25:14.539Z,19.46
2022-09-06T10:29:29.656Z,19.40
2022-09-06T10:33:48.142Z,19.61
2022-09-06T10:38:15.365Z,19.53
2022-09-06T10:42:28.442Z,19.85
2022-09-06T10:46:34.772Z,20.15
2022-09-06T10:51:11.489Z,20.49
2022-09-06T10:55:17.937Z,20.73
2022-09-06T11:04:01.964Z,21.27
2022-09-06T11:12:43.963Z,21.57
2022-09-06T11:16:59.011Z,21.27
2022-09-06T11:21:24.768Z,21.35
2022-09-06T11:25:50.552Z,21.16
2022-09-06T11:29:56.446Z,20.79
2022-09-06T11:34:06.291Z,20.74
2022-09-06T11:38:24.648Z,20.62
2022-09-06T11:42:44.922Z,20.54
2022-09-06T11:46:46.426Z,20.77
2022-09-06T11:51:11.148Z,20.62
2022-09-06T11:55:16.100Z,20.75
2022-09-06T11:59:19.410Z,21.27
2022-09-06T12:04:05.565Z,21.42
2022-09-06T12:08:11.055Z,21.18
2022-09-06T12:12:52.389Z,21.14
2022-09-06T12:17:00.326Z,21.05
2022-09-06T12:25:20.454Z,21.16
2022-09-06T12:29:27.203Z,21.17
2022-09-06T12:33:36.217Z,21.23
2022-09-06T12:37:50.457Z,21.46
2022-09-06T12:41:59.702Z,21.83
2022-09-06T12:46:01.581Z,21.82
2022-09-06T12:50:17.860Z,22.42
2022-09-06T12:54:26.664Z,22.54
2022-09-06T12:58:28.932Z,22.72
2022-09-06T13:02:41.253Z,22.23
2022-09-06T13:06:46.690Z,22.17
2022-09-06T13:10:48.296Z,22.29
2022-09-06T13:14:56.599Z,22.49
2022-09-06T13:19:29.723Z,22.70
2022-09-06T13:23:45.095Z,23.79
2022-09-06T13:27:51.640Z,24.23
2022-09-06T13:31:55.531Z,24.84
2022-09-06T13:36:06.293Z,25.05
2022-09-06T13:41:09.284Z,24.84
2022-09-06T13:45:25.957Z,25.13
2022-09-06T13:49:28.435Z,24.94
2022-09-06T13:53:30.342Z,24.32
2022-09-06T13:57:31.793Z,23.89
2022-09-06T14:01:34.123Z,23.55
2022-09-06T14:05:38.958Z,23.05
2022-09-06T14:09:40.400Z,23.00
2022-09-06T14:13:41.901Z,23.24
2022-09-06T14:17:43.431Z,23.27
2022-09-06T14:21:44.869Z,23.00
2022-09-06T14:25:46.777Z,22.63
2022-09-06T14:29:49.256Z,22.34
2022-09-06T14:33:50.731Z,22.82
2022-09-06T14:37:52.327Z,23.14
2022-09-06T14:41:53.997Z,23.92
2022-09-06T14:45:58.921Z,24.71
2022-09-06T14:50:00.742Z,25.31
2022-09-06T14:54:07.554Z,25.49
2022-09-06T14:58:09.239Z,24.73
2022-09-06T15:02:10.882Z,25.38
2022-09-06T15:06:12.922Z,24.51
2022-09-06T15:10:14.498Z,24.04
2022-09-06T15:14:22.565Z,23.42
2022-09-06T15:18:24.110Z,23.57
2022-09-06T15:22:25.682Z,23.48
2022-09-06T15:26:29.319Z,23.29
2022-09-06T15:30:30.859Z,22.60
2022-09-06T15:34:32.406Z,22.74
2022-09-06T15:38:41.257Z,22.37
2022-09-06T15:42:42.858Z,22.36
2022-09-06T15:46:58.210Z,22.33
2022-09-06T15:51:02.605Z,21.82
2022-09-06T15:55:22.729Z,21.77
2022-09-06T15:59:24.601Z,21.79
2022-09-06T16:03:26.086Z,21.76
2022-09-06T16:07:27.759Z,21.61
2022-09-06T16:11:30.178Z,21.36
2022-09-06T16:15:31.911Z,21.46
2022-09-06T16:19:33.436Z,21.27
2022-09-06T16:23:36.372Z,21.24
2022-09-06T16:27:38.011Z,21.21
2022-09-06T16:31:40.734Z,21.01
2022-09-06T16:35:43.162Z,21.04
2022-09-06T16:39:44.820Z,20.91
2022-09-06T16:43:47.859Z,20.81
2022-09-06T16:47:49.353Z,21.00
2022-09-06T16:51:51.057Z,20.84
2022-09-06T16:55:52.722Z,20.79
2022-09-06T16:59:54.465Z,20.85
2022-09-06T17:03:56.297Z,20.77
2022-09-06T17:07:57.753Z,20.59
2022-09-06T17:11:59.485Z,20.47
2022-09-06T17:16:22.278Z,20.57
2022-09-06T17:20:23.962Z,20.57
2022-09-06T17:24:26.873Z,20.37
2022-09-06T17:28:28.639Z,20.32
2022-09-06T17:32:31.753Z,20.38
2022-09-06T17:36:34.176Z,20.31
2022-09-06T17:40:35.895Z,20.31
2022-09-06T17:44:37.636Z,20.10
2022-09-06T17:48:39.092Z,20.13
2022-09-06T17:52:40.587Z,20.15
2022-09-06T17:56:42.117Z,20.17
2022-09-06T18:00:43.592Z,20.22
2022-09-06T18:04:45.158Z,20.22
2022-09-06T18:08:47.909Z,20.20
2022-09-06T18:12:50.266Z,20.04
2022-09-06T18:16:52.231Z,20.06
2022-09-06T18:20:53.762Z,20.01
2022-09-06T18:24:58.333Z,19.96
2022-09-06T18:29:00.203Z,19.79
2022-09-06T18:33:01.700Z,19.82
2022-09-06T18:37:03.194Z,19.79
2022-09-06T18:41:07.744Z,19.77
2022-09-06T18:45:09.290Z,19.71
2022-09-06T18:49:13.456Z,19.58
2022-09-06T18:53:18.122Z,19.43
2022-09-06T18:57:19.586Z,19.48
2022-09-06T19:01:21.831Z,19.33
2022-09-06T19:05:23.576Z,19.33
2022-09-06T19:09:25.067Z,19.49
2022-09-06T19:13:26.592Z,19.42
2022-09-06T19:17:28.062Z,19.23
2022-09-06T19:21:29.726Z,19.22
2022-09-06T19:25:31.179Z,19.06
2022-09-06T19:29:32.681Z,19.20
2022-09-06T19:33:36.335Z,19.25
2022-09-06T19:37:38.879Z,18.90
2022-09-06T19:41:46.580Z,18.87
2022-09-06T19:45:48.029Z,18.92
2022-09-06T19:49:49.510Z,18.82
2022-09-06T19:53:57.634Z,18.96
2022-09-06T19:58:00.512Z,18.77
2022-09-06T20:02:02.777Z,18.87
2022-09-06T20:06:07.449Z,18.70
2022-09-06T20:10:09.410Z,18.62
2022-09-06T20:14:11.470Z,18.65
2022-09-06T20:18:13.237Z,18.62
2022-09-06T20:22:14.729Z,18.53
2022-09-06T20:26:17.970Z,18.64
2022-09-06T20:30:19.773Z,18.63
2022-09-06T20:34:21.322Z,18.40
2022-09-06T20:38:23.056Z,18.54
2022-09-06T20:42:24.570Z,18.49
2022-09-06T20:46:30.934Z,18.54
2022-09-06T20:50:32.477Z,18.41
2022-09-06T20:54:34.029Z,18.29
2022-09-06T20:58:37.817Z,18.19
2022-09-06T21:02:39.340Z,18.03
2022-09-06T21:06:41.132Z,18.00
2022-09-06T21:10:42.998Z,17.97
2022-09-06T21:14:44.485Z,18.01
2022-09-06T21:18:50.634Z,17.81
2022-09-06T21:22:52.172Z,17.97
2022-09-06T21:26:53.627Z,17.60
2022-09-06T21:31:10.082Z,17.70
2022-09-06T21:35:11.592Z,17.49
2022-09-06T21:39:13.228Z,17.64
2022-09-06T21:43:14.685Z,17.69
2022-09-06T21:47:16.152Z,17.50
2022-09-06T21:51:20.390Z,17.65
2022-09-06T21:55:21.870Z,17.40
2022-09-06T21:59:23.359Z,17.48
2022-09-06T22:03:26.154Z,17.48
2022-09-06T22:07:27.594Z,17.46
2022-09-06T22:11:31.888Z,17.31
2022-09-06T22:15:37.632Z,17.50
2022-09-06T22:19:39.189Z,17.35
2022-09-06T22:23:40.776Z,17.18
2022-09-06T22:27:42.279Z,17.39
2022-09-06T22:31:43.931Z,17.49
2022-09-06T22:35:45.444Z,17.32
2022-09-06T22:39:48.050Z,17.27
2022-09-06T22:43:49.600Z,17.16
2022-09-06T22:47:51.083Z,17.01
2022-09-06T22:51:53.635Z,17.02
2022-09-06T22:55:55.875Z,16.91
2022-09-06T22:59:57.421Z,17.04
2022-09-06T23:03:59.401Z,17.01
2022-09-06T23:08:02.562Z,17.04
2022-09-06T23:12:05.127Z,16.99
2022-09-06T23:16:08.978Z,16.72
2022-09-06T23:20:10.545Z,16.67
2022-09-06T23:24:12.148Z,16.72
2022-09-06T23:28:13.648Z,16.76
2022-09-06T23:32:15.129Z,16.62
2022-09-06T23:36:16.607Z,16.82
2022-09-06T23:40:18.970Z,16.80
2022-09-06T23:44:20.814Z,16.83
2022-09-06T23:48:22.336Z,16.80
2022-09-06T23:52:23.864Z,16.85
2022-09-06T23:56:25.342Z,16.63
